KFWA/FWA METAR and TAF weather

Enter ICAO airport designator
Station Type Date Time Source
KFWA METAR 2020/07/10 19:54 UTC NOAA

KFWA 101954Z 29014G28KT 10SM SCT025 SCT040 BKN080 26/22 A2978 RMK AO2 PK WND 28030/1928 RAE00 SLP077 CB DSNT NE MOV E P0000 T02610217


Station Type Date Time Source
KFWA Decoded METAR 2020/07/10 19:54 UTC NOAA

FORT WAYNE INTERNATIONAL, IN, United States (KFWA) 41-00N 85-12W 248M
Jul 10, 2020 - 03:54 PM EDT / 2020.07.10 1954 UTC
Wind: from the WNW (290 degrees) at 16 MPH (14 KT) gusting to 32 MPH (28 KT):0
Visibility: 10 mile(s):0
Sky conditions: mostly cloudy
Weather: Cumulonimbus clouds observed
Precipitation last hour: A trace
Temperature: 79.0 F (26.1 C)
Dew Point: 71.1 F (21.7 C)
Relative Humidity: 76%
Pressure (altimeter): 29.78 in. Hg (1008 hPa)
ob: KFWA 101954Z 29014G28KT 10SM SCT025 SCT040 BKN080 26/22 A2978 RMK AO2 PK WND 28030/1928 RAE00 SLP077 CB DSNT NE MOV E P0000 T02610217
cycle: 20

Station Type Date Time Source
KFWA TAF 2020/07/10 18:22 UTC NOAA

TAF KFWA 101720Z 1018/1118 27012G22KT P6SM VCSH OVC035
TEMPO 1018/1021 5SM SHRA BKN009
FM102300 29012KT P6SM VCSH BKN040
FM110300 27009KT P6SM SCT150

Example: see airport list